createdAt,value
2022-11-29T00:01:08.036Z,100941.00
2022-11-29T00:03:34.665Z,100945.63
2022-11-29T00:06:06.207Z,100942.69
2022-11-29T00:08:32.361Z,100947.78
2022-11-29T00:11:04.151Z,100940.69
2022-11-29T00:13:30.255Z,100944.00
2022-11-29T00:15:56.378Z,100945.06
2022-11-29T00:18:22.548Z,100938.72
2022-11-29T00:20:48.656Z,100940.63
2022-11-29T00:23:14.757Z,100943.91
2022-11-29T06:48:07.613Z,101085.03
2022-11-29T06:50:53.332Z,101082.59
2022-11-29T06:53:45.349Z,101083.06
2022-11-29T06:56:49.497Z,101090.81
2022-11-29T06:59:37.940Z,101091.91
2022-11-29T07:02:13.023Z,101104.66
2022-11-29T07:05:11.436Z,101094.56
2022-11-29T07:07:38.037Z,101096.94
2022-11-29T07:10:05.621Z,101097.41
2022-11-29T07:12:33.912Z,101105.13
2022-11-29T07:15:00.280Z,101111.47
2022-11-29T07:17:41.683Z,101104.22
2022-11-29T07:20:26.555Z,101113.38
2022-11-29T07:23:20.424Z,101115.38
2022-11-29T07:26:11.240Z,101117.09
2022-11-29T07:28:54.309Z,101126.25
2022-11-29T07:31:54.334Z,101117.75
2022-11-29T07:34:36.339Z,101124.25
2022-11-29T07:37:28.878Z,101127.25
2022-11-29T07:40:06.677Z,101131.16
2022-11-29T07:43:07.013Z,101138.03
2022-11-29T07:45:36.793Z,101132.06
2022-11-29T07:48:04.091Z,101142.75
2022-11-29T07:50:31.136Z,101137.06
2022-11-29T07:52:57.769Z,101143.38
2022-11-29T07:55:26.952Z,101146.28
2022-11-29T07:57:53.373Z,101147.31
2022-11-29T08:00:20.678Z,101145.03
2022-11-29T08:02:48.045Z,101143.75
2022-11-29T08:05:14.237Z,101148.19
2022-11-29T08:07:41.417Z,101147.16
2022-11-29T08:10:12.405Z,101145.97
2022-11-29T08:12:43.930Z,101145.03
2022-11-29T08:15:10.426Z,101143.41
2022-11-29T08:17:39.667Z,101154.97
2022-11-29T08:20:06.501Z,101148.69
2022-11-29T08:22:32.785Z,101155.41
2022-11-29T08:24:59.983Z,101159.03
2022-11-29T08:27:26.402Z,101155.06
2022-11-29T08:29:52.582Z,101160.28
2022-11-29T08:32:18.703Z,101155.72
2022-11-29T08:34:45.144Z,101160.75
2022-11-29T08:37:11.503Z,101153.09
2022-11-29T08:39:37.628Z,101155.97
2022-11-29T08:42:04.015Z,101158.31
2022-11-29T08:44:30.217Z,101162.81
2022-11-29T08:47:15.160Z,101165.09
2022-11-29T08:50:01.253Z,101161.44
2022-11-29T08:52:47.205Z,101165.25
2022-11-29T08:55:13.503Z,101174.88
2022-11-29T08:57:40.862Z,101165.81
2022-11-29T09:00:08.243Z,101163.63
2022-11-29T09:02:34.547Z,101172.41
2022-11-29T09:05:00.745Z,101171.41
2022-11-29T09:07:26.900Z,101169.50
2022-11-29T09:09:53.016Z,101169.13
2022-11-29T09:12:19.142Z,101168.06
2022-11-29T09:14:45.594Z,101167.34
2022-11-29T09:17:12.075Z,101186.41
2022-11-29T09:19:38.555Z,101180.66
2022-11-29T09:22:04.671Z,101182.25
2022-11-29T09:24:30.945Z,101185.78
2022-11-29T09:26:57.117Z,101183.50
2022-11-29T09:29:23.225Z,101183.91
2022-11-29T09:31:49.372Z,101187.63
2022-11-29T09:34:16.746Z,101185.63
2022-11-29T09:36:45.724Z,101183.31
2022-11-29T09:39:14.667Z,101188.94
2022-11-29T09:42:22.306Z,101188.19
2022-11-29T09:45:06.797Z,101192.59
2022-11-29T09:48:24.015Z,101186.06
2022-11-29T09:51:24.732Z,101185.28
2022-11-29T09:54:18.999Z,101194.97
2022-11-29T09:56:49.687Z,101187.44
2022-11-29T09:59:28.938Z,101194.09
2022-11-29T10:02:21.094Z,101192.31
2022-11-29T10:04:56.720Z,101188.25
2022-11-29T10:07:32.038Z,101192.34
2022-11-29T10:10:09.047Z,101194.78
2022-11-29T10:12:42.594Z,101198.22
2022-11-29T10:15:18.398Z,101198.72
2022-11-29T10:17:54.569Z,101197.81
2022-11-29T10:20:24.419Z,101199.88
2022-11-29T10:23:21.169Z,101191.78
2022-11-29T10:25:49.917Z,101199.13
2022-11-29T10:28:20.303Z,101199.63
2022-11-29T10:30:47.046Z,101198.00
2022-11-29T10:33:21.557Z,101195.22
2022-11-29T10:35:50.862Z,101194.16
2022-11-29T10:38:32.504Z,101200.22
2022-11-29T10:41:12.268Z,101202.22
2022-11-29T10:43:38.644Z,101201.13
2022-11-29T10:46:10.468Z,101201.44
2022-11-29T10:48:36.605Z,101201.38
2022-11-29T10:51:03.659Z,101196.47
2022-11-29T10:53:37.127Z,101201.91
2022-11-29T10:56:19.873Z,101190.69
2022-11-29T10:58:56.248Z,101200.28
2022-11-29T11:01:22.833Z,101194.91
2022-11-29T11:03:57.225Z,101191.19
2022-11-29T11:06:27.461Z,101199.97
2022-11-29T11:09:11.164Z,101203.19
2022-11-29T11:11:38.367Z,101200.63
2022-11-29T11:14:18.070Z,101205.44
2022-11-29T11:16:44.327Z,101207.13
2022-11-29T11:19:32.053Z,101210.97
2022-11-29T11:22:00.747Z,101207.72
2022-11-29T11:24:32.686Z,101211.34
2022-11-29T11:27:00.232Z,101207.94
2022-11-29T11:29:36.661Z,101212.19
2022-11-29T11:32:04.443Z,101205.50
2022-11-29T11:34:34.911Z,101210.19
2022-11-29T11:37:31.472Z,101210.28
2022-11-29T11:40:00.266Z,101208.88
2022-11-29T11:42:37.085Z,101218.44
2022-11-29T11:45:09.565Z,101212.63
2022-11-29T11:47:42.477Z,101215.06
2022-11-29T11:50:14.936Z,101223.13
2022-11-29T11:52:50.360Z,101216.00
2022-11-29T11:55:30.632Z,101221.00
2022-11-29T11:58:09.358Z,101217.03
2022-11-29T12:01:05.492Z,101226.00
2022-11-29T12:03:38.411Z,101225.78
2022-11-29T12:06:34.318Z,101229.28
2022-11-29T12:09:16.549Z,101229.47
2022-11-29T12:12:13.517Z,101231.59
2022-11-29T12:14:58.301Z,101237.25
2022-11-29T12:17:52.455Z,101238.19
2022-11-29T12:20:32.860Z,101239.44
2022-11-29T12:23:17.104Z,101231.72
2022-11-29T12:26:05.566Z,101235.25
2022-11-29T12:28:33.950Z,101229.88
2022-11-29T12:31:02.845Z,101230.53
2022-11-29T12:33:43.871Z,101230.72
2022-11-29T12:36:10.021Z,101233.69
2022-11-29T12:39:05.479Z,101231.88
2022-11-29T12:41:47.255Z,101233.78
2022-11-29T12:44:22.780Z,101240.81
2022-11-29T12:47:34.158Z,101245.63
2022-11-29T12:50:10.323Z,101240.25
2022-11-29T12:52:47.389Z,101251.47
2022-11-29T12:55:23.249Z,101257.75
2022-11-29T12:58:04.496Z,101264.56
2022-11-29T13:00:56.089Z,101265.53
2022-11-29T13:03:28.858Z,101269.03
2022-11-29T13:06:31.598Z,101273.88
2022-11-29T13:09:26.148Z,101273.19
2022-11-29T13:12:18.703Z,101275.28
2022-11-29T13:15:01.612Z,101267.22
2022-11-29T13:17:38.898Z,101271.13
2022-11-29T13:20:25.193Z,101275.06
2022-11-29T13:23:45.538Z,101277.56
2022-11-29T13:26:17.512Z,101271.72
2022-11-29T13:28:46.392Z,101268.69
2022-11-29T13:31:17.343Z,101278.34
2022-11-29T13:33:46.439Z,101280.03
2022-11-29T13:36:28.503Z,101278.97
2022-11-29T13:39:22.419Z,101275.69
2022-11-29T13:42:15.756Z,101275.03
2022-11-29T13:45:04.604Z,101279.84
2022-11-29T13:47:30.735Z,101285.78
2022-11-29T13:49:57.293Z,101281.75
2022-11-29T13:52:26.655Z,101281.84
2022-11-29T13:55:15.761Z,101276.81
2022-11-29T13:58:20.692Z,101274.16
2022-11-29T14:00:49.708Z,101282.50
2022-11-29T14:03:18.666Z,101274.88
2022-11-29T14:05:46.942Z,101281.50
2022-11-29T14:09:02.442Z,101277.38
2022-11-29T14:11:29.791Z,101279.47
2022-11-29T14:14:10.024Z,101282.16
2022-11-29T14:16:41.928Z,101284.63
2022-11-29T14:19:08.034Z,101280.06
2022-11-29T14:22:12.939Z,101285.91
2022-11-29T14:24:40.285Z,101296.06
2022-11-29T14:27:06.370Z,101287.72
2022-11-29T14:29:47.747Z,101283.75
2022-11-29T14:33:03.663Z,101294.09
2022-11-29T14:35:39.544Z,101297.13
2022-11-29T14:38:25.083Z,101299.19
2022-11-29T14:41:03.676Z,101308.00
2022-11-29T14:43:34.208Z,101308.56
2022-11-29T14:46:15.691Z,101301.94
2022-11-29T14:48:47.027Z,101304.69
2022-11-29T14:51:16.261Z,101315.59
2022-11-29T14:53:44.785Z,101310.47
2022-11-29T14:56:29.066Z,101319.28
2022-11-29T14:59:32.776Z,101319.28
2022-11-29T15:02:07.503Z,101324.47
2022-11-29T15:04:35.850Z,101316.44
2022-11-29T15:07:03.565Z,101323.84
2022-11-29T15:09:33.413Z,101323.25
2022-11-29T15:12:06.996Z,101325.16
2022-11-29T15:14:48.939Z,101324.38
2022-11-29T15:17:32.079Z,101330.34
2022-11-29T15:20:11.753Z,101329.88
2022-11-29T15:22:48.079Z,101333.38
2022-11-29T15:25:31.065Z,101329.78
2022-11-29T15:28:03.076Z,101341.50
2022-11-29T15:30:34.852Z,101338.19
2022-11-29T15:33:04.542Z,101339.31
2022-11-29T15:35:33.756Z,101342.94
2022-11-29T15:38:00.290Z,101348.63
2022-11-29T15:40:39.583Z,101351.06
2022-11-29T15:43:14.671Z,101351.66
2022-11-29T15:45:47.672Z,101351.81
2022-11-29T15:48:17.876Z,101354.38
2022-11-29T15:50:51.899Z,101361.28
2022-11-29T15:53:44.157Z,101358.75
2022-11-29T15:56:35.837Z,101362.91
2022-11-29T15:59:09.048Z,101369.91
2022-11-29T16:01:37.192Z,101372.63
2022-11-29T16:04:03.645Z,101371.88
2022-11-29T16:06:40.751Z,101374.66
2022-11-29T16:09:12.576Z,101381.72
2022-11-29T16:11:39.410Z,101378.91
2022-11-29T16:14:11.706Z,101375.28
2022-11-29T16:16:39.993Z,101378.44
2022-11-29T16:19:26.293Z,101374.53
2022-11-29T16:22:07.521Z,101381.25
2022-11-29T16:24:34.597Z,101375.69
2022-11-29T16:27:01.699Z,101384.97
2022-11-29T16:29:31.102Z,101385.25
2022-11-29T16:31:57.746Z,101383.91
2022-11-29T16:34:31.241Z,101391.78
2022-11-29T16:37:07.089Z,101391.69
2022-11-29T16:39:38.746Z,101389.78
2022-11-29T16:42:19.390Z,101386.94
2022-11-29T16:45:02.224Z,101394.97
2022-11-29T16:47:57.959Z,101395.72
2022-11-29T16:50:26.504Z,101395.56
2022-11-29T16:52:56.518Z,101404.94
2022-11-29T16:55:23.106Z,101399.56
2022-11-29T16:57:49.564Z,101396.31
2022-11-29T17:00:31.662Z,101399.56
2022-11-29T17:02:58.409Z,101397.94
2022-11-29T17:05:24.667Z,101405.31
2022-11-29T17:07:51.246Z,101403.81
2022-11-29T17:10:22.073Z,101405.41
2022-11-29T17:12:48.644Z,101402.59
2022-11-29T17:15:14.911Z,101414.03
2022-11-29T17:17:43.350Z,101409.56
2022-11-29T17:20:11.737Z,101411.16
2022-11-29T17:22:37.887Z,101419.88
2022-11-29T17:25:04.551Z,101423.03
2022-11-29T17:27:30.712Z,101419.25
2022-11-29T17:29:56.885Z,101427.94
2022-11-29T17:32:26.641Z,101431.19
2022-11-29T17:34:53.322Z,101426.25
2022-11-29T17:37:19.517Z,101427.19
2022-11-29T17:39:48.162Z,101427.56
2022-11-29T17:42:14.662Z,101431.19
2022-11-29T17:44:41.130Z,101432.88
2022-11-29T17:47:07.258Z,101437.34
2022-11-29T17:49:33.409Z,101435.44
2022-11-29T17:51:59.536Z,101434.56
2022-11-29T17:54:25.708Z,101436.56
2022-11-29T17:56:52.054Z,101430.00
2022-11-29T17:59:18.190Z,101447.22
2022-11-29T18:01:47.210Z,101449.69
2022-11-29T18:04:13.592Z,101446.44
2022-11-29T18:06:40.679Z,101444.84
2022-11-29T18:09:09.113Z,101447.59
2022-11-29T18:11:45.313Z,101443.63
2022-11-29T18:14:16.142Z,101441.81
2022-11-29T18:16:42.570Z,101445.91
2022-11-29T18:19:12.723Z,101451.00
2022-11-29T18:21:39.236Z,101452.72
2022-11-29T18:24:07.084Z,101460.28
2022-11-29T18:26:34.137Z,101465.09
2022-11-29T18:29:00.977Z,101470.13
2022-11-29T18:31:32.820Z,101470.31
2022-11-29T18:34:01.068Z,101464.31
2022-11-29T18:36:32.555Z,101464.31
2022-11-29T18:39:01.099Z,101470.31
2022-11-29T18:41:29.231Z,101465.38
2022-11-29T18:44:00.551Z,101472.09
2022-11-29T18:46:32.263Z,101472.56
2022-11-29T18:49:01.124Z,101474.91
2022-11-29T18:51:28.939Z,101478.53
2022-11-29T18:53:55.378Z,101476.72
2022-11-29T18:56:23.250Z,101477.09
2022-11-29T18:58:58.381Z,101475.50
2022-11-29T19:01:25.987Z,101484.13
2022-11-29T19:03:54.362Z,101474.28
2022-11-29T19:06:23.465Z,101477.94
2022-11-29T19:08:49.931Z,101477.09
2022-11-29T19:11:21.592Z,101473.09
2022-11-29T19:13:51.782Z,101473.09
2022-11-29T19:16:19.312Z,101467.78
2022-11-29T19:18:45.836Z,101476.00
2022-11-29T19:21:14.801Z,101475.41
2022-11-29T19:23:42.274Z,101481.66
2022-11-29T19:26:13.880Z,101481.47
2022-11-29T19:28:42.424Z,101487.81
2022-11-29T19:31:10.643Z,101481.00
2022-11-29T19:33:38.937Z,101482.59
2022-11-29T19:36:12.927Z,101488.09
2022-11-29T19:38:40.390Z,101487.97
2022-11-29T19:41:17.364Z,101484.31
2022-11-29T19:43:43.972Z,101488.84
2022-11-29T19:46:15.539Z,101487.72
2022-11-29T19:48:41.899Z,101493.09
2022-11-29T19:51:09.446Z,101489.69
2022-11-29T19:53:35.719Z,101490.97
2022-11-29T19:56:10.718Z,101490.41
2022-11-29T19:58:36.853Z,101492.19
2022-11-29T20:01:10.269Z,101496.28
2022-11-29T20:03:36.482Z,101495.44
2022-11-29T20:06:03.032Z,101494.94
2022-11-29T20:08:29.793Z,101499.47
2022-11-29T20:10:56.112Z,101501.88
2022-11-29T20:13:22.549Z,101508.78
2022-11-29T20:15:48.767Z,101513.13
2022-11-29T20:18:14.981Z,101504.31
2022-11-29T20:20:41.109Z,101510.50
2022-11-29T20:23:07.219Z,101505.84
2022-11-29T20:25:33.827Z,101505.50
2022-11-29T20:27:59.942Z,101501.88
2022-11-29T20:30:26.161Z,101509.88
2022-11-29T20:32:52.379Z,101517.56
2022-11-29T20:35:19.011Z,101517.47
2022-11-29T20:38:03.538Z,101519.28
2022-11-29T20:40:46.378Z,101514.00
2022-11-29T20:43:39.498Z,101518.31
2022-11-29T20:46:05.962Z,101515.09
2022-11-29T20:48:32.284Z,101518.66
2022-11-29T20:51:00.978Z,101516.03
2022-11-29T20:53:35.387Z,101521.59
2022-11-29T20:56:02.081Z,101516.03
2022-11-29T20:58:28.232Z,101518.00
2022-11-29T21:00:55.329Z,101519.97
2022-11-29T21:03:22.348Z,101529.19
2022-11-29T21:05:48.950Z,101523.53
2022-11-29T21:08:16.968Z,101514.56
2022-11-29T21:10:43.165Z,101528.41
2022-11-29T21:13:11.529Z,101524.66
2022-11-29T21:15:39.144Z,101524.72
2022-11-29T21:18:05.604Z,101529.38
2022-11-29T21:20:31.937Z,101528.47
2022-11-29T21:23:35.713Z,101525.75
2022-11-29T21:26:13.414Z,101522.44
2022-11-29T21:28:51.169Z,101533.69
2022-11-29T21:31:18.039Z,101532.78
2022-11-29T21:33:44.609Z,101529.09
2022-11-29T21:36:11.940Z,101537.88
2022-11-29T21:38:38.755Z,101534.31
2022-11-29T21:41:04.952Z,101542.19
2022-11-29T21:44:04.234Z,101537.66
2022-11-29T21:46:17.262Z,101544.72
2022-11-29T21:48:44.471Z,101544.72
2022-11-29T21:51:11.964Z,101543.72
2022-11-29T21:53:39.371Z,101540.28
2022-11-29T21:56:08.138Z,101542.81
2022-11-29T21:58:35.940Z,101552.09
2022-11-29T22:01:14.839Z,101549.66
2022-11-29T22:03:42.221Z,101545.41
2022-11-29T22:06:18.699Z,101549.66
2022-11-29T22:08:44.867Z,101544.97
2022-11-29T22:11:16.199Z,101546.72
2022-11-29T22:14:02.529Z,101552.94
2022-11-29T22:16:30.158Z,101557.03
2022-11-29T22:18:56.395Z,101554.53
2022-11-29T22:21:23.071Z,101553.09
2022-11-29T22:23:49.291Z,101548.97
2022-11-29T22:26:15.410Z,101556.00
2022-11-29T22:28:41.542Z,101553.97
2022-11-29T22:31:12.204Z,101559.34
2022-11-29T22:33:38.928Z,101552.25
2022-11-29T22:36:10.256Z,101559.56
2022-11-29T22:38:37.283Z,101565.22
2022-11-29T22:41:10.014Z,101556.16
2022-11-29T22:43:36.707Z,101554.38
2022-11-29T22:46:05.224Z,101559.75
2022-11-29T22:48:37.005Z,101558.66
2022-11-29T22:51:28.091Z,101555.22
2022-11-29T22:53:56.576Z,101557.97
2022-11-29T22:56:24.944Z,101560.78
2022-11-29T22:58:51.276Z,101559.75
2022-11-29T23:01:20.226Z,101558.31
2022-11-29T23:03:51.816Z,101560.03
2022-11-29T23:06:20.648Z,101568.28
2022-11-29T23:08:48.588Z,101566.50
2022-11-29T23:11:29.602Z,101563.88
2022-11-29T23:13:55.727Z,101561.78
2022-11-29T23:16:26.831Z,101566.75
2022-11-29T23:18:54.460Z,101560.09
2022-11-29T23:21:22.155Z,101564.63
2022-11-29T23:23:54.466Z,101564.88
2022-11-29T23:26:26.034Z,101568.19
2022-11-29T23:28:53.041Z,101573.06
2022-11-29T23:31:20.303Z,101571.69
2022-11-29T23:33:46.445Z,101565.56
2022-11-29T23:36:13.780Z,101573.75
2022-11-29T23:38:40.064Z,101569.94
2022-11-29T23:41:08.217Z,101558.13
2022-11-29T23:43:36.385Z,101569.66
2022-11-29T23:46:12.659Z,101568.88
2022-11-29T23:48:38.991Z,101577.94
2022-11-29T23:51:05.133Z,101570.69
2022-11-29T23:53:31.232Z,101574.94
2022-11-29T23:56:02.213Z,101577.66
2022-11-29T23:58:30.057Z,101569.81
